Time;durP1;ratioP1;P1;durP2;ratioP2;P2;SDS_P1;SDS_P2;PMS_P1;PMS_P2;Temp;Humidity;BMP_temperature;BMP_pressure;BME280_temperature;BME280_humidity;BME280_pressure;Samples;Min_cycle;Max_cycle;Signal;HPM_P1;HPM_P2
2021/03/14 00:03:59;;;;;;;19.50;16.30;;;;;;;;;;10445176;27;20078;-64
2021/03/14 00:08:57;;;;;;;21.23;14.88;;;;;;;;;;10444681;27;20133;-64
2021/03/14 00:13:55;;;;;;;22.55;18.60;;;;;;;;;;10444295;27;20078;-64
2021/03/14 00:18:52;;;;;;;18.25;14.77;;;;;;;;;;10444012;27;20070;-64
2021/03/14 00:23:50;;;;;;;16.98;13.80;;;;;;;;;;10444111;27;20080;-64
2021/03/14 00:28:47;;;;;;;22.13;17.48;;;;;;;;;;10443819;27;20495;-64
2021/03/14 00:33:45;;;;;;;20.55;17.45;;;;;;;;;;10443910;27;20043;-64
2021/03/14 00:38:43;;;;;;;44.03;29.10;;;;;;;;;;10424218;27;20074;-64
2021/03/14 00:43:40;;;;;;;21.33;19.02;;;;;;;;;;10443742;27;20059;-64
2021/03/14 00:48:37;;;;;;;26.90;24.00;;;;;;;;;;10442405;27;20074;-63
2021/03/14 00:53:37;;;;;;;25.58;20.80;;;;;;;;;;10424431;27;20058;-63
2021/03/14 00:58:40;;;;;;;63.47;57.10;;;;;;;;;;10424273;27;20089;-63
2021/03/14 01:03:38;;;;;;;26.17;23.48;;;;;;;;;;10423792;27;20481;-63
2021/03/14 01:08:37;;;;;;;29.05;26.17;;;;;;;;;;10441370;27;20455;-63
2021/03/14 01:13:35;;;;;;;25.08;22.48;;;;;;;;;;10422904;27;20043;-64
2021/03/14 01:18:33;;;;;;;26.65;23.83;;;;;;;;;;10423062;27;20047;-63
2021/03/14 01:23:31;;;;;;;20.27;17.25;;;;;;;;;;10441915;27;20039;-63
2021/03/14 01:28:29;;;;;;;18.60;15.82;;;;;;;;;;10441375;27;20086;-63
2021/03/14 01:33:26;;;;;;;24.17;21.67;;;;;;;;;;10440797;27;20042;-63
2021/03/14 01:38:23;;;;;;;23.45;20.90;;;;;;;;;;10441100;27;20508;-63
2021/03/14 01:43:21;;;;;;;24.02;21.55;;;;;;;;;;10440651;27;20062;-62
2021/03/14 01:48:20;;;;;;;445.67;278.80;;;;;;;;;;10439941;27;20071;-62
2021/03/14 01:53:18;;;;;;;24.20;20.17;;;;;;;;;;10440672;27;20499;-62
2021/03/14 01:58:16;;;;;;;21.60;15.18;;;;;;;;;;10440839;27;20050;-62
2021/03/14 02:03:14;;;;;;;15.35;13.10;;;;;;;;;;10440539;27;20047;-63
2021/03/14 02:08:13;;;;;;;16.50;13.15;;;;;;;;;;10439609;27;20078;-64
2021/03/14 02:13:14;;;;;;;16.85;14.73;;;;;;;;;;10440433;28;20039;-62
2021/03/14 02:18:12;;;;;;;18.10;15.48;;;;;;;;;;10440111;28;20044;-64
2021/03/14 02:23:17;;;;;;;18.48;13.77;;;;;;;;;;10440143;28;20082;-64
2021/03/14 02:28:16;;;;;;;16.25;14.52;;;;;;;;;;10440186;28;20075;-64
2021/03/14 02:33:14;;;;;;;17.13;14.75;;;;;;;;;;10439966;28;20050;-63
2021/03/14 02:38:13;;;;;;;16.73;14.93;;;;;;;;;;10439958;28;20518;-63
2021/03/14 02:43:11;;;;;;;17.35;15.15;;;;;;;;;;10439009;28;20055;-63
2021/03/14 02:48:10;;;;;;;17.08;14.60;;;;;;;;;;10439671;28;20075;-63
2021/03/14 02:53:08;;;;;;;21.92;17.17;;;;;;;;;;10440031;28;20043;-63
2021/03/14 02:58:05;;;;;;;20.80;17.70;;;;;;;;;;10439627;27;20073;-63
2021/03/14 03:03:04;;;;;;;18.60;16.33;;;;;;;;;;10446026;27;20393;-63
2021/03/14 03:08:04;;;;;;;28.88;21.55;;;;;;;;;;10446365;27;20091;-63
2021/03/14 03:13:02;;;;;;;47.63;32.30;;;;;;;;;;10446906;27;20043;-63
2021/03/14 03:18:00;;;;;;;20.15;17.95;;;;;;;;;;10445948;27;20043;-63
2021/03/14 03:22:58;;;;;;;22.33;19.15;;;;;;;;;;10446514;27;20047;-63
2021/03/14 03:27:57;;;;;;;17.95;15.20;;;;;;;;;;10445393;27;20070;-63
2021/03/14 03:32:54;;;;;;;22.65;20.33;;;;;;;;;;10446172;27;20039;-63
2021/03/14 03:37:52;;;;;;;19.35;16.02;;;;;;;;;;10445860;27;20039;-63
2021/03/14 03:42:53;;;;;;;20.88;14.88;;;;;;;;;;10446055;27;20051;-62
2021/03/14 03:47:53;;;;;;;17.10;14.68;;;;;;;;;;10445491;27;20078;-63
2021/03/14 03:52:52;;;;;;;30.67;23.33;;;;;;;;;;10445067;27;20082;-63
2021/03/14 03:57:50;;;;;;;17.55;15.65;;;;;;;;;;10445268;27;20035;-63
2021/03/14 04:02:48;;;;;;;18.38;15.70;;;;;;;;;;10444894;27;20043;-63
2021/03/14 04:07:49;;;;;;;15.88;14.20;;;;;;;;;;10444793;27;20075;-63
2021/03/14 04:12:47;;;;;;;22.50;20.10;;;;;;;;;;10443678;27;20073;-63
2021/03/14 04:17:47;;;;;;;34.22;26.33;;;;;;;;;;10444452;27;20058;-63
2021/03/14 04:22:46;;;;;;;33.42;29.27;;;;;;;;;;10443944;27;20412;-63
2021/03/14 04:27:45;;;;;;;30.52;25.58;;;;;;;;;;10443166;27;20115;-62
2021/03/14 04:32:43;;;;;;;19.92;17.15;;;;;;;;;;10443783;27;20059;-62
2021/03/14 04:37:40;;;;;;;18.55;15.57;;;;;;;;;;10443596;27;20043;-63
2021/03/14 04:42:38;;;;;;;22.50;20.20;;;;;;;;;;10442898;27;20066;-63
2021/03/14 04:47:39;;;;;;;21.85;19.40;;;;;;;;;;10443083;27;20465;-62
2021/03/14 04:52:38;;;;;;;20.02;17.90;;;;;;;;;;10443035;27;20061;-63
2021/03/14 04:57:36;;;;;;;20.55;17.05;;;;;;;;;;10442701;27;20043;-63
2021/03/14 05:02:34;;;;;;;64.43;49.53;;;;;;;;;;10442662;27;20043;-63
2021/03/14 05:07:33;;;;;;;72.97;49.17;;;;;;;;;;10442328;27;20043;-63
2021/03/14 05:12:30;;;;;;;20.17;16.15;;;;;;;;;;10441899;27;20047;-63
2021/03/14 05:17:27;;;;;;;20.05;16.30;;;;;;;;;;10441498;27;20051;-63
2021/03/14 05:22:26;;;;;;;17.33;15.20;;;;;;;;;;10441510;27;20542;-62
2021/03/14 05:27:24;;;;;;;16.20;13.98;;;;;;;;;;10441411;27;20528;-63
2021/03/14 05:32:22;;;;;;;15.32;13.02;;;;;;;;;;10441692;27;20074;-63
2021/03/14 05:37:19;;;;;;;18.33;16.33;;;;;;;;;;10441395;27;20047;-64
2021/03/14 05:42:17;;;;;;;141.02;94.53;;;;;;;;;;10440480;27;20633;-64
2021/03/14 05:47:16;;;;;;;104.38;80.40;;;;;;;;;;10440009;27;20043;-64
2021/03/14 05:52:16;;;;;;;114.00;85.00;;;;;;;;;;10440809;27;20440;-63
2021/03/14 05:57:16;;;;;;;101.40;74.93;;;;;;;;;;10441773;27;20046;-64
2021/03/14 06:02:17;;;;;;;155.65;106.25;;;;;;;;;;10441759;27;20042;-63
2021/03/14 06:07:14;;;;;;;104.47;80.75;;;;;;;;;;10441471;27;20085;-63
2021/03/14 06:12:12;;;;;;;102.75;73.88;;;;;;;;;;10441323;28;20420;-63
2021/03/14 06:17:09;;;;;;;73.63;53.78;;;;;;;;;;10441309;28;20066;-64
2021/03/14 06:22:21;;;;;;;80.85;58.53;;;;;;;;;;10440551;28;20058;-63
2021/03/14 06:27:36;;;;;;;77.68;57.88;;;;;;;;;;10439809;28;20086;-63
2021/03/14 06:32:33;;;;;;;94.70;72.67;;;;;;;;;;10439955;28;20070;-63
2021/03/14 06:37:32;;;;;;;89.55;67.60;;;;;;;;;;10446877;27;20046;-63
2021/03/14 06:42:30;;;;;;;65.38;48.88;;;;;;;;;;10448135;27;20116;-63
2021/03/14 06:47:36;;;;;;;73.80;51.95;;;;;;;;;;10447873;27;20071;-64
2021/03/14 06:52:34;;;;;;;78.90;53.53;;;;;;;;;;10447901;27;20054;-64
2021/03/14 06:57:32;;;;;;;65.30;48.55;;;;;;;;;;10447292;27;20039;-64
2021/03/14 07:02:29;;;;;;;68.90;52.72;;;;;;;;;;10446549;27;20039;-64
2021/03/14 07:07:29;;;;;;;68.85;52.85;;;;;;;;;;10447043;27;20081;-63
2021/03/14 07:12:29;;;;;;;76.28;55.83;;;;;;;;;;10446487;27;20067;-62
2021/03/14 07:17:35;;;;;;;81.78;60.33;;;;;;;;;;10459277;27;20098;-63
2021/03/14 07:22:33;;;;;;;79.80;61.42;;;;;;;;;;10484488;27;20070;-63
2021/03/14 07:27:31;;;;;;;104.72;78.72;;;;;;;;;;10488321;27;20082;-63
2021/03/14 07:32:29;;;;;;;98.90;73.22;;;;;;;;;;10488170;27;20507;-63
2021/03/14 07:37:26;;;;;;;55.60;45.60;;;;;;;;;;10488212;27;20066;-63
2021/03/14 07:42:24;;;;;;;85.57;63.50;;;;;;;;;;10487751;27;20458;-64
2021/03/14 07:47:23;;;;;;;72.45;56.90;;;;;;;;;;10486104;27;20047;-64
2021/03/14 07:52:24;;;;;;;56.03;44.38;;;;;;;;;;10487408;27;20057;-63
2021/03/14 07:57:23;;;;;;;58.95;42.63;;;;;;;;;;10487147;27;20049;-63
2021/03/14 08:02:28;;;;;;;65.43;50.03;;;;;;;;;;10487282;27;20043;-64
2021/03/14 08:07:42;;;;;;;59.85;44.65;;;;;;;;;;10486430;27;20605;-64
2021/03/14 08:12:40;;;;;;;42.53;32.60;;;;;;;;;;10486082;27;20053;-63
2021/03/14 08:17:38;;;;;;;45.15;29.65;;;;;;;;;;10486226;27;20488;-63
2021/03/14 08:22:46;;;;;;;35.00;24.92;;;;;;;;;;10486331;27;20047;-63
2021/03/14 08:27:48;;;;;;;37.70;30.92;;;;;;;;;;10485846;27;20420;-64
2021/03/14 08:32:46;;;;;;;41.03;30.55;;;;;;;;;;10467244;27;20039;-64
2021/03/14 08:37:44;;;;;;;29.38;23.23;;;;;;;;;;10466800;27;20050;-64
2021/03/14 08:42:51;;;;;;;26.38;21.48;;;;;;;;;;10484928;27;20089;-65
2021/03/14 08:47:54;;;;;;;34.53;26.58;;;;;;;;;;10466096;27;20090;-64
2021/03/14 08:52:51;;;;;;;35.33;24.58;;;;;;;;;;10466465;27;20039;-64
2021/03/14 08:58:12;;;;;;;39.63;27.90;;;;;;;;;;10465620;27;20055;-63
2021/03/14 09:03:12;;;;;;;32.08;27.05;;;;;;;;;;10465962;27;20046;-64
2021/03/14 09:08:15;;;;;;;31.85;25.02;;;;;;;;;;10465785;27;20518;-63
2021/03/14 09:13:13;;;;;;;31.90;22.63;;;;;;;;;;10484385;27;20385;-64
2021/03/14 09:18:23;;;;;;;29.98;22.10;;;;;;;;;;10465411;27;20058;-63
2021/03/14 09:23:23;;;;;;;27.13;20.47;;;;;;;;;;10465491;27;20058;-63
2021/03/14 09:28:22;;;;;;;35.63;25.23;;;;;;;;;;10483781;27;20812;-63
2021/03/14 09:33:24;;;;;;;28.23;21.92;;;;;;;;;;10464667;27;20046;-63
2021/03/14 09:38:33;;;;;;;24.95;19.98;;;;;;;;;;10464632;27;20397;-63
2021/03/14 09:43:39;;;;;;;25.13;17.83;;;;;;;;;;10464947;27;20066;-64
2021/03/14 09:48:47;;;;;;;23.65;18.05;;;;;;;;;;10464419;27;20054;-63
2021/03/14 09:53:45;;;;;;;24.25;18.02;;;;;;;;;;10464419;27;20148;-64
2021/03/14 09:58:51;;;;;;;22.15;18.58;;;;;;;;;;10464152;27;20062;-64
2021/03/14 10:03:57;;;;;;;31.48;20.88;;;;;;;;;;10464019;27;20397;-64
2021/03/14 10:09:20;;;;;;;24.92;18.85;;;;;;;;;;10430086;27;20101;-63
2021/03/14 10:14:19;;;;;;;28.40;18.00;;;;;;;;;;10454605;27;20812;-63
2021/03/14 10:19:17;;;;;;;15.43;11.35;;;;;;;;;;10424840;27;20071;-65
2021/03/14 10:24:15;;;;;;;23.27;18.58;;;;;;;;;;10417764;27;20066;-65
2021/03/14 10:29:13;;;;;;;15.85;8.95;;;;;;;;;;10455900;27;20078;-63
2021/03/14 10:34:34;;;;;;;9.75;8.63;;;;;;;;;;10426047;27;20066;-64
2021/03/14 10:39:33;;;;;;;14.00;11.05;;;;;;;;;;10424633;27;20082;-64
2021/03/14 10:44:40;;;;;;;13.45;9.90;;;;;;;;;;10417590;28;20150;-64
2021/03/14 10:49:50;;;;;;;9.40;7.43;;;;;;;;;;10436466;28;20492;-64
2021/03/14 10:54:50;;;;;;;9.80;8.25;;;;;;;;;;10417813;28;20508;-64
2021/03/14 11:00:04;;;;;;;9.55;7.00;;;;;;;;;;10419700;28;20062;-64
2021/03/14 11:05:06;;;;;;;12.40;8.85;;;;;;;;;;10439965;28;20042;-64
2021/03/14 11:10:11;;;;;;;15.95;9.52;;;;;;;;;;10420743;28;20093;-64
2021/03/14 11:15:20;;;;;;;13.02;10.02;;;;;;;;;;10420972;28;20408;-64
2021/03/14 11:20:30;;;;;;;33.20;16.40;;;;;;;;;;10421871;27;20062;-64
2021/03/14 11:25:38;;;;;;;49.88;21.95;;;;;;;;;;10428238;27;20055;-64
2021/03/14 11:30:37;;;;;;;60.72;25.58;;;;;;;;;;10427849;27;20535;-64
2021/03/14 11:35:36;;;;;;;15.18;11.55;;;;;;;;;;10427101;27;20047;-64
2021/03/14 11:40:43;;;;;;;12.73;9.25;;;;;;;;;;10427384;27;20348;-65
2021/03/14 11:46:01;;;;;;;11.00;8.48;;;;;;;;;;10445977;27;20058;-64
2021/03/14 11:50:59;;;;;;;11.77;10.13;;;;;;;;;;10426825;27;20050;-64
2021/03/14 11:55:57;;;;;;;15.35;11.65;;;;;;;;;;10426551;27;20077;-64
2021/03/14 12:01:02;;;;;;;12.48;10.95;;;;;;;;;;10427587;27;20479;-64
2021/03/14 12:06:01;;;;;;;11.15;9.52;;;;;;;;;;10426397;27;20118;-64
2021/03/14 12:11:06;;;;;;;15.85;12.50;;;;;;;;;;10425467;27;20086;-64
2021/03/14 12:16:11;;;;;;;14.65;12.43;;;;;;;;;;10426200;27;20043;-65
2021/03/14 12:21:13;;;;;;;12.13;9.98;;;;;;;;;;10444521;27;20104;-65
2021/03/14 12:26:15;;;;;;;10.35;7.65;;;;;;;;;;10425424;27;20047;-64
2021/03/14 12:31:16;;;;;;;12.57;9.30;;;;;;;;;;10442953;27;20471;-64
2021/03/14 12:36:17;;;;;;;12.60;7.03;;;;;;;;;;10444585;27;20420;-64
2021/03/14 12:41:26;;;;;;;10.45;7.22;;;;;;;;;;10425020;27;20062;-65
2021/03/14 12:46:23;;;;;;;13.55;9.90;;;;;;;;;;10424960;27;20051;-64
2021/03/14 12:51:22;;;;;;;7.43;6.13;;;;;;;;;;10443187;27;20074;-64
2021/03/14 12:56:19;;;;;;;9.88;7.32;;;;;;;;;;10424331;27;20511;-64
2021/03/14 13:01:23;;;;;;;11.63;8.02;;;;;;;;;;10424453;27;20055;-64
2021/03/14 13:06:22;;;;;;;11.30;9.30;;;;;;;;;;10443575;27;20043;-64
2021/03/14 13:11:19;;;;;;;8.82;6.15;;;;;;;;;;10442128;27;20085;-64
2021/03/14 13:16:16;;;;;;;8.60;6.82;;;;;;;;;;10442379;27;20043;-64
2021/03/14 13:21:14;;;;;;;9.57;8.10;;;;;;;;;;10442706;27;20035;-64
2021/03/14 13:26:12;;;;;;;12.05;8.20;;;;;;;;;;10442578;27;20036;-64
2021/03/14 13:31:10;;;;;;;6.57;5.00;;;;;;;;;;10441609;27;20074;-64
2021/03/14 13:36:09;;;;;;;14.10;9.70;;;;;;;;;;10442292;27;20047;-64
2021/03/14 13:41:14;;;;;;;30.50;20.48;;;;;;;;;;10441720;27;20051;-64
2021/03/14 13:46:12;;;;;;;9.18;6.55;;;;;;;;;;10440942;27;20043;-64
2021/03/14 13:51:09;;;;;;;10.07;6.65;;;;;;;;;;10441473;27;20070;-64
2021/03/14 13:56:07;;;;;;;6.38;4.63;;;;;;;;;;10441659;27;20074;-64
2021/03/14 14:01:07;;;;;;;11.43;6.88;;;;;;;;;;10441518;27;20040;-64
2021/03/14 14:06:05;;;;;;;26.83;19.40;;;;;;;;;;10422316;27;20197;-64
2021/03/14 14:11:03;;;;;;;14.02;9.65;;;;;;;;;;10440909;27;20090;-64
2021/03/14 14:16:01;;;;;;;15.32;9.90;;;;;;;;;;10441278;28;20076;-64
2021/03/14 14:21:00;;;;;;;13.68;9.05;;;;;;;;;;10440442;28;20419;-64
2021/03/14 14:25:57;;;;;;;14.35;10.68;;;;;;;;;;10440950;28;20402;-64
2021/03/14 14:31:10;;;;;;;7.88;6.32;;;;;;;;;;10440843;28;20070;-64
2021/03/14 14:36:09;;;;;;;26.77;17.63;;;;;;;;;;10440749;28;20054;-64
2021/03/14 14:41:06;;;;;;;20.45;12.85;;;;;;;;;;10440352;28;20043;-64
2021/03/14 14:46:03;;;;;;;16.90;10.93;;;;;;;;;;10440625;28;20175;-65
2021/03/14 14:51:01;;;;;;;30.75;16.63;;;;;;;;;;10439549;28;20500;-63
2021/03/14 14:56:00;;;;;;;11.90;8.38;;;;;;;;;;10442983;27;20043;-64
2021/03/14 15:00:57;;;;;;;10.52;7.65;;;;;;;;;;10448352;27;20070;-64
2021/03/14 15:05:54;;;;;;;20.98;12.98;;;;;;;;;;10448154;27;20412;-64
2021/03/14 15:10:52;;;;;;;16.13;11.18;;;;;;;;;;10446785;27;20071;-64
2021/03/14 15:15:51;;;;;;;12.73;7.97;;;;;;;;;;10447232;27;20043;-64
2021/03/14 15:20:48;;;;;;;10.95;8.05;;;;;;;;;;10447493;27;20054;-62
2021/03/14 15:25:46;;;;;;;19.30;12.05;;;;;;;;;;10447362;27;20031;-63
2021/03/14 15:30:43;;;;;;;9.15;6.78;;;;;;;;;;10447112;27;20097;-64
2021/03/14 15:35:41;;;;;;;14.43;8.90;;;;;;;;;;10446910;27;20485;-64
2021/03/14 15:40:39;;;;;;;9.32;7.63;;;;;;;;;;10445484;27;20055;-64
2021/03/14 15:45:36;;;;;;;17.33;8.82;;;;;;;;;;10445854;27;20039;-64
2021/03/14 15:50:34;;;;;;;11.63;7.90;;;;;;;;;;10446068;27;20066;-63
2021/03/14 15:55:33;;;;;;;13.32;8.27;;;;;;;;;;10445502;27;20070;-64
2021/03/14 16:00:31;;;;;;;28.40;19.42;;;;;;;;;;10443994;27;20039;-63
2021/03/14 16:05:29;;;;;;;35.65;22.90;;;;;;;;;;10444948;27;20055;-66
2021/03/14 16:10:26;;;;;;;36.90;26.88;;;;;;;;;;10444016;27;20079;-64
2021/03/14 16:15:24;;;;;;;40.78;26.90;;;;;;;;;;10425809;27;20500;-65
2021/03/14 16:20:22;;;;;;;53.53;41.95;;;;;;;;;;10444969;27;20420;-64
2021/03/14 16:25:19;;;;;;;34.88;24.10;;;;;;;;;;10444345;27;20083;-64
2021/03/14 16:30:17;;;;;;;30.00;20.23;;;;;;;;;;10444285;27;20498;-64
2021/03/14 16:35:15;;;;;;;54.35;40.42;;;;;;;;;;10443264;27;20047;-64
2021/03/14 16:40:13;;;;;;;61.40;36.17;;;;;;;;;;10444185;27;20076;-65
2021/03/14 16:45:11;;;;;;;47.17;32.45;;;;;;;;;;10443033;27;20070;-64
2021/03/14 16:50:09;;;;;;;39.15;30.63;;;;;;;;;;10443076;27;20542;-64
2021/03/14 16:55:08;;;;;;;40.15;27.45;;;;;;;;;;10443450;27;20043;-64
2021/03/14 17:00:06;;;;;;;39.50;30.63;;;;;;;;;;10425182;27;20058;-65
2021/03/14 17:05:04;;;;;;;78.78;52.67;;;;;;;;;;10443312;27;20039;-64
2021/03/14 17:10:02;;;;;;;66.68;42.40;;;;;;;;;;10442831;27;20079;-64
2021/03/14 17:15:01;;;;;;;37.22;27.85;;;;;;;;;;10442727;27;20467;-63
2021/03/14 17:19:58;;;;;;;36.22;29.30;;;;;;;;;;10442486;27;20081;-64
2021/03/14 17:24:55;;;;;;;39.80;31.90;;;;;;;;;;10442460;27;20403;-63
2021/03/14 17:29:53;;;;;;;28.40;22.67;;;;;;;;;;10441754;27;20074;-64
2021/03/14 17:34:51;;;;;;;36.00;28.55;;;;;;;;;;10442085;27;20074;-64
2021/03/14 17:39:49;;;;;;;30.15;22.17;;;;;;;;;;10441905;27;20042;-64
2021/03/14 17:44:46;;;;;;;29.98;18.83;;;;;;;;;;10441457;27;20047;-64
2021/03/14 17:49:43;;;;;;;29.80;21.83;;;;;;;;;;10441060;27;20082;-62
2021/03/14 17:54:41;;;;;;;24.20;19.88;;;;;;;;;;10441422;27;20054;-65
2021/03/14 17:59:45;;;;;;;25.27;19.83;;;;;;;;;;10441479;27;20035;-64
2021/03/14 18:04:43;;;;;;;23.42;16.63;;;;;;;;;;10441099;27;20081;-64
2021/03/14 18:09:41;;;;;;;24.52;16.52;;;;;;;;;;10440940;27;20489;-62
2021/03/14 18:14:39;;;;;;;26.95;24.08;;;;;;;;;;10440439;27;20078;-64
2021/03/14 18:19:37;;;;;;;25.42;19.98;;;;;;;;;;10440788;28;20050;-64
2021/03/14 18:24:34;;;;;;;27.20;22.55;;;;;;;;;;10440631;28;20043;-62
2021/03/14 18:29:32;;;;;;;30.88;23.75;;;;;;;;;;10440971;27;20089;-64
2021/03/14 18:34:30;;;;;;;42.58;31.70;;;;;;;;;;10449052;27;20043;-64
2021/03/14 18:39:27;;;;;;;22.90;20.40;;;;;;;;;;10447874;27;20435;-65
2021/03/14 18:44:25;;;;;;;22.15;16.63;;;;;;;;;;10448077;27;20411;-63
2021/03/14 18:49:22;;;;;;;16.80;14.38;;;;;;;;;;10448390;27;20456;-64
2021/03/14 18:54:21;;;;;;;20.48;13.93;;;;;;;;;;10448255;27;20078;-64
2021/03/14 18:59:18;;;;;;;20.75;16.33;;;;;;;;;;10448138;27;20046;-63
2021/03/14 19:04:30;;;;;;;14.57;11.07;;;;;;;;;;10447878;27;20043;-63
2021/03/14 19:09:28;;;;;;;12.93;9.45;;;;;;;;;;10447655;27;20508;-63
2021/03/14 19:14:25;;;;;;;13.05;9.20;;;;;;;;;;10446638;27;20058;-64
2021/03/14 19:19:23;;;;;;;16.60;9.75;;;;;;;;;;10446303;27;20081;-64
2021/03/14 19:24:20;;;;;;;15.27;10.90;;;;;;;;;;10447072;27;20043;-64
2021/03/14 19:29:18;;;;;;;18.80;13.05;;;;;;;;;;10446970;27;20071;-63
2021/03/14 19:34:16;;;;;;;44.70;25.60;;;;;;;;;;10445975;27;20427;-63
2021/03/14 19:39:13;;;;;;;58.53;32.63;;;;;;;;;;10446474;27;20043;-63
2021/03/14 19:44:11;;;;;;;19.50;11.70;;;;;;;;;;10445955;27;20066;-63
2021/03/14 19:49:09;;;;;;;12.82;8.70;;;;;;;;;;10445735;27;20078;-63
2021/03/14 19:54:06;;;;;;;12.93;10.25;;;;;;;;;;10445969;27;20043;-63
2021/03/14 19:59:03;;;;;;;17.90;11.07;;;;;;;;;;10445714;27;20043;-63
2021/03/14 20:04:05;;;;;;;17.88;12.75;;;;;;;;;;10445085;27;20044;-64
2021/03/14 20:09:03;;;;;;;16.65;10.60;;;;;;;;;;10445244;27;20087;-64
2021/03/14 20:14:01;;;;;;;15.02;11.27;;;;;;;;;;10426360;27;20055;-64
2021/03/14 20:18:58;;;;;;;47.42;39.35;;;;;;;;;;10444830;27;20052;-65
2021/03/14 20:23:55;;;;;;;16.25;12.40;;;;;;;;;;10444196;27;20047;-64
2021/03/14 20:28:54;;;;;;;23.65;20.15;;;;;;;;;;10450634;27;20115;-64
2021/03/14 20:33:51;;;;;;;33.50;28.60;;;;;;;;;;10458816;27;20063;-63
2021/03/14 20:38:48;;;;;;;27.27;23.02;;;;;;;;;;10477607;27;20062;-62
2021/03/14 20:43:46;;;;;;;36.60;30.25;;;;;;;;;;10480555;27;20167;-64
2021/03/14 20:48:44;;;;;;;41.53;32.80;;;;;;;;;;10479957;27;20085;-64
2021/03/14 20:53:41;;;;;;;53.10;40.88;;;;;;;;;;10480738;27;20516;-64
2021/03/14 20:58:38;;;;;;;43.47;32.63;;;;;;;;;;10484667;27;20089;-64
2021/03/14 21:03:36;;;;;;;21.67;19.38;;;;;;;;;;10484059;27;20051;-64
2021/03/14 21:08:34;;;;;;;28.85;25.10;;;;;;;;;;10484804;27;20050;-64
2021/03/14 21:13:31;;;;;;;23.05;19.80;;;;;;;;;;10484430;27;20074;-64
2021/03/14 21:18:29;;;;;;;25.08;21.13;;;;;;;;;;10484344;27;20051;-65
2021/03/14 21:23:30;;;;;;;25.10;19.23;;;;;;;;;;10483945;27;20057;-65
2021/03/14 21:28:28;;;;;;;23.33;19.23;;;;;;;;;;10483281;27;20047;-64
2021/03/14 21:33:25;;;;;;;20.33;18.15;;;;;;;;;;10483801;27;20179;-65
2021/03/14 21:38:23;;;;;;;18.02;15.05;;;;;;;;;;10483432;27;20070;-64
2021/03/14 21:43:20;;;;;;;19.15;14.60;;;;;;;;;;10483058;27;20055;-63
2021/03/14 21:48:18;;;;;;;16.65;14.95;;;;;;;;;;10483364;27;20050;-64
2021/03/14 21:53:16;;;;;;;15.40;13.70;;;;;;;;;;10482103;27;20077;-63
2021/03/14 21:58:13;;;;;;;15.85;14.23;;;;;;;;;;10482773;27;20408;-63
2021/03/14 22:03:11;;;;;;;14.88;13.30;;;;;;;;;;10482891;27;20039;-64
2021/03/14 22:08:10;;;;;;;17.05;13.07;;;;;;;;;;10481850;27;20415;-63
2021/03/14 22:13:07;;;;;;;16.00;14.32;;;;;;;;;;10482449;27;20078;-63
2021/03/14 22:18:05;;;;;;;16.88;14.52;;;;;;;;;;10483107;27;20495;-63
2021/03/14 22:23:03;;;;;;;15.93;14.15;;;;;;;;;;10482360;27;20034;-64
2021/03/14 22:28:01;;;;;;;16.38;14.60;;;;;;;;;;10481197;27;20051;-64
2021/03/14 22:32:58;;;;;;;15.80;14.18;;;;;;;;;;10482249;27;20070;-64
2021/03/14 22:37:56;;;;;;;18.10;15.98;;;;;;;;;;10481325;27;20050;-64
2021/03/14 22:42:54;;;;;;;17.65;15.85;;;;;;;;;;10481272;27;20503;-64
2021/03/14 22:47:52;;;;;;;20.05;17.88;;;;;;;;;;10481648;27;20042;-64
2021/03/14 22:52:56;;;;;;;21.52;17.15;;;;;;;;;;10481542;27;20078;-64
2021/03/14 22:57:54;;;;;;;19.52;17.52;;;;;;;;;;10481515;27;20039;-64
2021/03/14 23:03:04;;;;;;;19.30;16.70;;;;;;;;;;10481780;27;20039;-64
2021/03/14 23:08:03;;;;;;;18.83;16.52;;;;;;;;;;10480921;27;20049;-65
2021/03/14 23:13:00;;;;;;;20.85;16.83;;;;;;;;;;10481456;27;20460;-64
2021/03/14 23:17:58;;;;;;;18.75;16.80;;;;;;;;;;10485481;27;20047;-64
2021/03/14 23:22:57;;;;;;;19.05;17.05;;;;;;;;;;10489221;27;20070;-65
2021/03/14 23:27:55;;;;;;;20.13;17.58;;;;;;;;;;10487994;27;20074;-64
2021/03/14 23:32:52;;;;;;;19.98;16.73;;;;;;;;;;10488723;27;20074;-64
2021/03/14 23:38:04;;;;;;;27.27;17.92;;;;;;;;;;10488283;27;20491;-65
2021/03/14 23:43:03;;;;;;;21.52;19.33;;;;;;;;;;10488064;27;20503;-64
2021/03/14 23:48:00;;;;;;;20.60;18.52;;;;;;;;;;10488267;27;20089;-64
2021/03/14 23:52:58;;;;;;;21.70;19.35;;;;;;;;;;10486967;27;20076;-65
2021/03/14 23:57:56;;;;;;;29.88;20.10;;;;;;;;;;10486330;27;20066;-65
